LFBOLFBP

Guest
Details From LFBO - Toulouse Blagnac
To LFBP - Pau Pyrenees
Flight Number -
Tags decoded
Created
Modified
Stats Distance 89 nm / 164 km
Max Altitude 0 ft / 0 m
Waypoints 4
Social Downloads 3
Likes 0
Share VATSIM

Download

Looking for another format? Having issues loading an existing format? Contact us
Advertisement - Login to hide

Notes

Requested: LFBO OBUTO BAKRO LFBP

Route

LFBO OBUTO BAKRO LFBP

ID Type Via Altitude Latitude Longitude Leg Dist Tot Dist Heading (true) Name
O LFBO APT - 0 ft / 0 m 43.62903˚ 1.36397˚ - 0 nm - Toulouse Blagnac
OBUTO FIX - 0 ft / 0 m 43.15917˚ 0.02083˚ 65 nm 65 nm 245° / 244° -
BAKRO FIX - 0 ft / 0 m 43.23000˚ -0.13361˚ 7 nm 73 nm 302° / 302° -
O LFBP APT - 0 ft / 0 m 43.38108˚ -0.42075˚ 15 nm 88 nm 306° / 306° Pau Pyrenees

Altitude Profile

Advertisement - Login to hide

LFBO

Details ICAO LFBO (TLS)
Name Toulouse Blagnac
Region France
Timezone Europe/Paris (UTC+2.0)
Stats Elevation 499 ft / 152 m (AMSL)
Location 43.629026° 1.363969°
Runways 2
Magnetic Variation 0.628° E

METAR

LFBO 251330Z AUTO 12012KT CAVOK 24/15 Q1013 NOSIG

Decode

TAF

TAF LFBO 251100Z 2512/2618 14010KT 9999 BKN019 BECMG 2600/2602 14015G25KT PROB30 TEMPO 2606/2616 14018G33KT

Decode

Departure Runways

ID Width Length Bearing (true) Bearing (mag) Surface Threshold Offset Overrun Length
14L 148 ft / 45 m 9,923 ft / 3,025 m 143.00° 142.37° Asphalt 0 ft / 0 m 0 ft / 0 m
14R 148 ft / 45 m 11,484 ft / 3,500 m 142.99° 142.36° Asphalt 0 ft / 0 m 295 ft / 90 m
32L 148 ft / 45 m 11,484 ft / 3,500 m 323.01° 322.38° Asphalt 0 ft / 0 m 197 ft / 60 m
32R 148 ft / 45 m 9,923 ft / 3,025 m 323.02° 322.39° Asphalt 0 ft / 0 m 0 ft / 0 m

LFBP

Details ICAO LFBP (PUF)
Name Pau Pyrenees
Region France
Timezone Europe/Paris (UTC+2.0)
Stats Elevation 616 ft / 188 m (AMSL)
Location 43.381078° -0.420752°
Runways 1
Magnetic Variation 0.148° E

METAR

LFBP 251330Z AUTO 29007KT 260V320 9000 BKN011 BKN036 20/17 Q1014 TEMPO 4000 -SHRA SCT060TCU

Decode

TAF

TAF AMD LFBP 251236Z 2512/2612 03005KT 9999 SCT020 BKN100 TEMPO 2512/2514 BKN014 TEMPO 2514/2521 4000 -SHRA SCT060TCU PROB40 TEMPO 2516/2520 28015G25KT 2000 -TSRA BKN025CB BECMG 2522/2524 1500 BR OVC003 BECMG 2606/2608 6000 BKN015

Decode

Destination Runways

ID Width Length Bearing (true) Bearing (mag) Surface Threshold Offset Overrun Length
13 148 ft / 45 m 8,191 ft / 2,497 m 125.89° 125.74° Asphalt 0 ft / 0 m 0 ft / 0 m
31 148 ft / 45 m 8,191 ft / 2,497 m 305.90° 305.75° Asphalt 0 ft / 0 m 0 ft / 0 m

Approach Navaids

Runway Type Ident Frequency Range Bearing (true) Bearing (mag) Slope Elevation
31 Localiser PU 110.10 MHz 18 nm / 33 km 305.89° 305.74° - 576 ft / 176 m (AMSL)
31 Glidescope PU 110.10 MHz 10 nm / 19 km 305.90° 305.75° 3.00° 676 ft / 206 m (AMSL)
31 DME PU 110.10 MHz 18 nm / 33 km - - - 608 ft / 185 m (AMSL)

Popular Alternatives